Terminal Aerodrome Forecast
Issued by NWS Wichita, KS

Home | Current Version | Previous Version | Graphics & Text | Print | Product List | Glossary On
Versions: 1 2 3 4 5 6 7 8 9 10 11 12 13 14 15 16
000
FTUS43 KICT 052324
TAFICT
TAF
KICT 052324Z 0600/0624 18008KT P6SM SKC
     FM060300 16006KT P6SM SCT070
     FM060700 36016G24KT P6SM SCT150
     FM060900 36012KT P6SM SCT150
     FM062200 36007KT P6SM SCT200=

USA.gov is the U.S. government's official web portal to all federal, state and local government web resources and services.